METAR Data
IDs: Format: Raw Decoded Include TAF

Data at: 2034 UTC 08 Aug 2020

KSJN 081954Z AUTO 24021G27KT 10SM FEW110 28/07 A3026 RMK AO2 PK WND 24027/1947 SLP150 T02830072
KSJN 081854Z AUTO VRB06KT 10SM CLR 30/05 A3026 RMK AO2 LTG DSNT SW SLP141 T03000050
KSJN 081754Z AUTO VRB05KT 10SM CLR 29/05 A3028 RMK AO2 SLP148 T02890050 10300 20111 58007
KSJN 081654Z AUTO VRB03KT 10SM CLR 28/06 A3029 RMK AO2 SLP150 T02830056
KSJN 081554Z AUTO VRB03KT 10SM CLR 26/06 A3030 RMK AO2 SLP156 T02560061
KSJN 081454Z AUTO 00000KT 10SM CLR 21/07 A3030 RMK AO2 SLP163 T02060067 51012
KSJN 081354Z AUTO 00000KT 10SM CLR 17/07 A3030 RMK AO2 SLP166 T01670067
KSJN 081254Z AUTO 00000KT 10SM CLR 13/06 A3028 RMK AO2 SLP166 T01330056
KSJN 081154Z AUTO 00000KT 10SM CLR 12/05 A3026 RMK AO2 SLP161 T01170050 10211 20111 53007
KSJN 081054Z AUTO 00000KT 10SM CLR 13/05 A3025 RMK AO2 SLP154 T01330050
KSJN 080954Z AUTO 00000KT 10SM CLR 14/06 A3024 RMK AO2 SLP148 T01440061
KSJN 080854Z AUTO 18003KT 10SM CLR 15/06 A3024 RMK AO2 SLP145 T01500061 50002
KSJN 080754Z AUTO 00000KT 10SM CLR 17/06 A3024 RMK AO2 SLP137 T01720061
KSJN 080654Z AUTO 18004KT 10SM CLR 20/07 A3024 RMK AO2 SLP130 T02000067 403170150
KSJN 080554Z AUTO 17007KT 10SM CLR 21/07 A3023 RMK AO2 SLP132 T02110067 10289 20211 51010
KSJN 080454Z AUTO 14005KT 10SM CLR 22/07 A3023 RMK AO2 SLP127 T02220072
KSJN 080354Z AUTO 16006KT 10SM CLR 24/08 A3021 RMK AO2 SLP124 T02390078
KSJN 080254Z AUTO 14005KT 10SM FEW120 26/08 A3019 RMK AO2 SLP121 T02560078 53003
KSJN 080154Z AUTO 14009KT 10SM SCT120 27/08 A3018 RMK AO2 SLP124 T02720083
KSJN 080054Z AUTO 16009KT 10SM FEW120 29/07 A3017 RMK AO2 SLP123 T02890072
KSJN 072354Z AUTO 16012G23KT 10SM CLR 29/08 A3018 RMK AO2 SLP125 60000 T02890078 10317 20278 58001
KSJN 072254Z AUTO 15010G17KT 10SM FEW075 BKN110 29/06 A3019 RMK AO2 RAB2155E07 SLP128 P0000 T02890056
KSJN 072154Z AUTO 11012KT 10SM FEW033 SCT075 BKN110 29/07 A3019 RMK AO2 RAB05E33 SLP126 P0000 T02890072
KSJN 072054Z AUTO 14010KT 10SM BKN110 29/06 A3019 RMK AO2 WSHFT 2026 LTG DSNT NE SLP124 T02940056 56004
KSJN 072046Z AUTO 13010G23KT 10SM BKN110 29/07 A3019 RMK AO2 WSHFT 2026 LTG DSNT NE T02940067
KSJN 072011Z AUTO VRB05KT 10SM BKN110 31/03 A3019 RMK AO2 LTG DSNT SE T03060028
KSJN 071954Z AUTO 29004KT 10SM VCTS FEW110 31/03 A3019 RMK AO2 LTG DSNT E AND SE SLP120 T03110033
KSJN 071952Z AUTO 27005KT 10SM VCTS FEW110 31/03 A3019 RMK AO2 LTG DSNT E AND SE
KSJN 071854Z AUTO 25008KT 10SM BKN100 32/04 A3020 RMK AO2 LTG DSNT S SLP120 T03170044
KSJN 071754Z AUTO 00000KT 10SM BKN100 29/04 A3022 RMK AO2 SLP128 T02890044 10300 20150 58002
KSJN 071654Z AUTO 03005KT 10SM CLR 29/04 A3023 RMK AO2 SLP128 T02940044
KSJN 071554Z AUTO 05003KT 10SM CLR 27/04 A3023 RMK AO2 SLP126 T02720039
KSJN 071454Z AUTO 00000KT 10SM CLR 23/03 A3023 RMK AO2 SLP128 T02330033 51013
KSJN 071354Z AUTO 00000KT 10SM CLR 18/02 A3021 RMK AO2 SLP128 T01830022
KSJN 071254Z AUTO 11003KT 10SM CLR 16/01 A3020 RMK AO2 SLP126 T01560011
KSJN 071154Z AUTO 17003KT 10SM CLR 16/01 A3018 RMK AO2 SLP117 T01610011 10211 20161 53006
KSJN 071054Z AUTO 18005KT 10SM CLR 17/01 A3017 RMK AO2 SLP112 T01670011
KSJN 070954Z AUTO 18006KT 10SM CLR 17/01 A3016 RMK AO2 SLP106 T01720011
KSJN 070854Z AUTO 16004KT 10SM CLR 17/01 A3016 RMK AO2 SLP107 T01670006 51004